createdAt,value
2023-05-11T00:01:49.588Z,37.94
2023-05-11T00:03:52.573Z,38.37
2023-05-11T00:05:55.486Z,38.49
2023-05-11T00:07:58.175Z,38.73
2023-05-11T00:10:01.338Z,39.20
2023-05-11T00:12:04.954Z,38.77
2023-05-11T00:14:07.608Z,39.05
2023-05-11T00:16:10.447Z,38.60
2023-05-11T00:18:13.413Z,38.99
2023-05-11T00:20:16.556Z,39.61
2023-05-11T00:22:19.324Z,40.30
2023-05-11T00:24:22.018Z,41.17
2023-05-11T00:26:24.775Z,43.11
2023-05-11T00:28:27.551Z,45.30
2023-05-11T00:30:30.340Z,45.67
2023-05-11T00:32:33.288Z,45.31
2023-05-11T00:34:36.134Z,44.57
2023-05-11T00:36:41.296Z,43.49
2023-05-11T00:38:44.221Z,42.77
2023-05-11T00:40:47.018Z,42.08
2023-05-11T00:42:49.699Z,42.22
2023-05-11T00:44:52.465Z,41.87
2023-05-11T00:46:55.286Z,41.43
2023-05-11T00:48:58.586Z,40.76
2023-05-11T00:51:02.326Z,40.46
2023-05-11T00:53:05.023Z,40.18
2023-05-11T00:55:08.130Z,39.80
2023-05-11T00:57:11.022Z,39.17
2023-05-11T00:59:14.323Z,39.15
2023-05-11T01:01:19.131Z,39.42
2023-05-11T01:03:22.094Z,39.38
2023-05-11T01:05:34.480Z,39.54
2023-05-11T01:08:06.124Z,40.21
2023-05-11T01:10:24.092Z,40.14
2023-05-11T01:12:41.969Z,39.92
2023-05-11T01:15:16.653Z,39.85
2023-05-11T01:17:34.479Z,39.98
2023-05-11T01:19:54.544Z,40.01
2023-05-11T01:21:59.160Z,40.11
2023-05-11T01:24:04.660Z,39.67
2023-05-11T01:26:17.477Z,39.83
2023-05-11T01:28:41.994Z,40.08
2023-05-11T01:30:50.773Z,40.00
2023-05-11T01:32:56.452Z,39.99
2023-05-11T01:35:06.610Z,40.28
2023-05-11T01:37:19.648Z,40.42
2023-05-11T01:39:40.142Z,39.71
2023-05-11T01:41:49.479Z,40.23
2023-05-11T01:43:58.918Z,40.02
2023-05-11T01:46:03.391Z,40.17
2023-05-11T01:48:09.857Z,40.09
2023-05-11T01:50:13.938Z,40.32
2023-05-11T01:52:18.190Z,40.60
2023-05-11T01:54:22.270Z,41.04
2023-05-11T01:56:27.038Z,40.31
2023-05-11T01:58:31.348Z,40.13
2023-05-11T02:00:35.203Z,39.82
2023-05-11T02:02:38.859Z,39.76
2023-05-11T02:04:42.864Z,39.55
2023-05-11T02:06:48.702Z,39.67
2023-05-11T02:08:52.704Z,39.64
2023-05-11T02:10:58.019Z,39.29
2023-05-11T02:13:03.983Z,40.11
2023-05-11T02:15:09.890Z,39.87
2023-05-11T02:17:16.142Z,39.64
2023-05-11T02:19:20.904Z,39.82
2023-05-11T02:21:24.935Z,39.21
2023-05-11T02:23:28.364Z,39.58
2023-05-11T02:25:32.117Z,39.75
2023-05-11T02:27:36.220Z,39.77
2023-05-11T02:29:39.022Z,40.08
2023-05-11T02:31:45.647Z,40.03
2023-05-11T02:33:52.514Z,40.30
2023-05-11T02:35:56.801Z,39.75
2023-05-11T02:38:04.145Z,39.84
2023-05-11T02:40:13.628Z,39.91
2023-05-11T02:42:20.902Z,39.89
2023-05-11T02:44:27.811Z,40.05
2023-05-11T02:46:34.826Z,39.42
2023-05-11T02:48:45.494Z,39.49
2023-05-11T02:50:51.738Z,39.54
2023-05-11T02:52:57.206Z,39.21
2023-05-11T02:55:02.149Z,39.51
2023-05-11T02:57:07.795Z,40.34
2023-05-11T02:59:11.110Z,40.48
2023-05-11T03:01:14.053Z,40.09
2023-05-11T03:03:17.135Z,39.98
2023-05-11T03:05:20.041Z,40.46
2023-05-11T03:07:23.136Z,39.85
2023-05-11T03:09:25.904Z,40.09
2023-05-11T03:11:29.079Z,40.32
2023-05-11T03:13:33.093Z,40.75
2023-05-11T03:15:38.023Z,40.58
2023-05-11T03:17:44.332Z,40.86
2023-05-11T03:19:48.045Z,41.04
2023-05-11T03:21:52.728Z,41.50
2023-05-11T03:23:57.545Z,41.23
2023-05-11T03:26:01.799Z,41.22
2023-05-11T03:28:06.750Z,41.29
2023-05-11T03:30:11.485Z,40.72
2023-05-11T03:32:14.711Z,41.03
2023-05-11T03:34:17.509Z,41.75
2023-05-11T03:36:23.063Z,42.14
2023-05-11T03:38:28.388Z,42.43
2023-05-11T03:40:33.584Z,42.10
2023-05-11T03:42:38.281Z,42.99
2023-05-11T03:44:44.348Z,42.90
2023-05-11T03:46:50.704Z,43.81
2023-05-11T03:48:54.257Z,45.00
2023-05-11T03:50:57.194Z,44.88
2023-05-11T03:53:01.112Z,45.33
2023-05-11T03:55:04.810Z,45.82
2023-05-11T03:57:09.900Z,45.43
2023-05-11T03:59:18.726Z,45.75
2023-05-11T04:01:23.042Z,46.07
2023-05-11T04:03:26.272Z,45.81
2023-05-11T04:05:29.337Z,46.43
2023-05-11T04:07:33.112Z,45.64
2023-05-11T04:09:36.060Z,45.20
2023-05-11T04:11:39.900Z,43.71
2023-05-11T04:13:42.944Z,43.09
2023-05-11T04:15:45.782Z,43.25
2023-05-11T04:17:48.652Z,43.36
2023-05-11T04:19:51.534Z,43.63
2023-05-11T04:21:54.399Z,43.98
2023-05-11T04:23:57.285Z,43.58
2023-05-11T04:26:00.022Z,44.03
2023-05-11T04:28:02.785Z,44.00
2023-05-11T04:30:06.618Z,43.77
2023-05-11T04:32:10.544Z,43.66
2023-05-11T04:34:13.271Z,43.83
2023-05-11T04:36:16.205Z,44.82
2023-05-11T04:38:20.334Z,43.79
2023-05-11T04:40:23.024Z,43.78
2023-05-11T04:42:25.853Z,44.26
2023-05-11T04:44:28.636Z,43.83
2023-05-11T04:46:31.365Z,43.35
2023-05-11T04:48:34.174Z,43.68
2023-05-11T04:50:37.306Z,42.29
2023-05-11T04:52:40.028Z,42.03
2023-05-11T04:54:42.752Z,40.90
2023-05-11T04:56:45.571Z,40.65
2023-05-11T04:58:48.306Z,41.31
2023-05-11T05:00:51.220Z,41.73
2023-05-11T05:02:54.082Z,42.35
2023-05-11T05:04:57.113Z,41.71
2023-05-11T05:06:59.987Z,42.00
2023-05-11T05:09:02.693Z,40.94
2023-05-11T05:11:05.467Z,40.65
2023-05-11T05:13:08.461Z,41.02
2023-05-11T05:15:12.580Z,39.61
2023-05-11T05:17:15.531Z,39.66
2023-05-11T05:19:20.356Z,40.40
2023-05-11T05:21:23.149Z,40.31
2023-05-11T05:23:26.213Z,39.53
2023-05-11T05:25:29.027Z,38.74
2023-05-11T05:27:34.725Z,37.85
2023-05-11T05:29:37.881Z,38.90
2023-05-11T05:31:40.592Z,37.71
2023-05-11T05:33:43.364Z,37.66
2023-05-11T05:35:47.142Z,37.28
2023-05-11T05:37:49.919Z,36.83
2023-05-11T05:39:52.635Z,36.92
2023-05-11T05:41:55.482Z,36.91
2023-05-11T05:43:58.098Z,38.28
2023-05-11T05:46:00.841Z,38.16
2023-05-11T05:48:06.191Z,36.39
2023-05-11T05:50:09.191Z,37.28
2023-05-11T05:52:12.138Z,38.41
2023-05-11T05:54:14.873Z,39.19
2023-05-11T05:56:17.582Z,37.96
2023-05-11T05:58:20.218Z,37.92
2023-05-11T06:00:23.440Z,37.00
2023-05-11T06:02:26.200Z,37.55
2023-05-11T06:04:29.157Z,37.19
2023-05-11T06:06:32.003Z,36.75
2023-05-11T06:08:34.656Z,36.40
2023-05-11T06:10:37.579Z,35.35
2023-05-11T06:12:40.342Z,35.87
2023-05-11T06:14:43.043Z,36.21
2023-05-11T06:16:45.878Z,36.08
2023-05-11T06:18:48.660Z,34.84
2023-05-11T06:20:51.790Z,35.32
2023-05-11T06:22:54.464Z,33.82
2023-05-11T06:24:58.260Z,34.46
2023-05-11T06:27:01.077Z,35.16
2023-05-11T06:29:03.703Z,34.71
2023-05-11T06:31:06.447Z,34.18
2023-05-11T06:33:09.258Z,34.25
2023-05-11T06:35:12.194Z,34.20
2023-05-11T06:37:20.634Z,35.57
2023-05-11T06:39:23.313Z,35.82
2023-05-11T06:41:26.213Z,34.04
2023-05-11T06:43:28.835Z,34.26
2023-05-11T06:45:31.492Z,33.73
2023-05-11T06:47:34.341Z,33.02
2023-05-11T06:49:37.094Z,32.66
2023-05-11T06:51:39.735Z,32.15
2023-05-11T06:53:42.503Z,31.74
2023-05-11T06:55:45.219Z,31.97
2023-05-11T06:57:47.939Z,32.75
2023-05-11T06:59:50.952Z,31.47
2023-05-11T07:01:53.621Z,31.98
2023-05-11T07:03:56.340Z,31.74
2023-05-11T07:05:59.033Z,31.35
2023-05-11T07:08:02.466Z,31.73
2023-05-11T07:10:07.453Z,32.08
2023-05-11T07:12:10.610Z,30.82
2023-05-11T07:14:13.251Z,29.24
2023-05-11T07:16:16.161Z,28.61
2023-05-11T07:18:18.841Z,29.54
2023-05-11T07:20:21.615Z,28.76
2023-05-11T07:22:24.384Z,30.01
2023-05-11T07:24:27.099Z,31.74
2023-05-11T07:26:30.515Z,30.96
2023-05-11T07:28:33.332Z,30.86
2023-05-11T07:30:36.107Z,29.92
2023-05-11T07:32:39.046Z,29.70
2023-05-11T07:34:41.940Z,29.21
2023-05-11T07:36:45.120Z,30.16
2023-05-11T07:38:47.735Z,27.31
2023-05-11T07:40:50.652Z,28.11
2023-05-11T07:42:54.294Z,27.26
2023-05-11T07:44:56.965Z,27.28
2023-05-11T07:46:59.777Z,28.36
2023-05-11T07:49:14.652Z,28.13
2023-05-11T07:51:21.607Z,27.56
2023-05-11T07:53:24.506Z,28.02
2023-05-11T07:55:27.260Z,27.61
2023-05-11T07:57:29.888Z,29.02
2023-05-11T07:59:33.049Z,29.88
2023-05-11T08:01:35.690Z,29.85
2023-05-11T08:03:38.572Z,29.52
2023-05-11T08:05:41.318Z,29.36
2023-05-11T08:07:44.040Z,29.35
2023-05-11T08:09:46.671Z,28.63
2023-05-11T08:11:50.252Z,30.40
2023-05-11T08:13:52.952Z,31.21
2023-05-11T08:15:55.692Z,30.58
2023-05-11T08:17:58.509Z,29.60
2023-05-11T08:20:01.245Z,29.93
2023-05-11T08:22:04.136Z,29.60
2023-05-11T08:24:07.060Z,30.70
2023-05-11T08:26:09.747Z,30.90
2023-05-11T08:28:12.462Z,28.94
2023-05-11T08:30:15.584Z,29.90
2023-05-11T08:32:18.375Z,32.14
2023-05-11T08:34:21.069Z,32.39
2023-05-11T08:36:23.888Z,30.56
2023-05-11T08:38:26.893Z,30.93
2023-05-11T08:40:31.427Z,30.32
2023-05-11T08:42:35.636Z,29.75
2023-05-11T08:44:40.951Z,30.04
2023-05-11T08:46:50.153Z,29.32
2023-05-11T08:49:00.071Z,28.18
2023-05-11T08:51:04.522Z,26.74
2023-05-11T08:53:07.619Z,24.85
2023-05-11T08:55:10.631Z,27.81
2023-05-11T08:57:14.687Z,24.77
2023-05-11T08:59:18.963Z,27.06
2023-05-11T09:01:23.642Z,28.72
2023-05-11T09:03:29.869Z,27.34
2023-05-11T09:05:33.382Z,27.87
2023-05-11T09:07:40.598Z,27.64
2023-05-11T09:09:43.508Z,27.64
2023-05-11T09:11:46.468Z,27.62
2023-05-11T09:13:49.670Z,26.70
2023-05-11T09:15:52.442Z,26.81
2023-05-11T09:17:55.334Z,26.16
2023-05-11T09:19:58.594Z,28.60
2023-05-11T09:22:01.341Z,26.23
2023-05-11T09:24:04.346Z,26.39
2023-05-11T09:26:30.105Z,26.48
2023-05-11T09:28:35.974Z,28.68
2023-05-11T09:30:39.532Z,28.71
2023-05-11T09:32:55.613Z,27.92
2023-05-11T09:34:58.549Z,25.86
2023-05-11T09:37:01.210Z,27.42
2023-05-11T09:39:04.787Z,27.65
2023-05-11T09:41:08.587Z,25.93
2023-05-11T09:43:23.790Z,26.26
2023-05-11T09:45:40.449Z,24.75
2023-05-11T09:47:43.473Z,24.45
2023-05-11T09:49:47.232Z,24.71
2023-05-11T09:52:01.324Z,25.14
2023-05-11T09:54:24.227Z,25.09
2023-05-11T09:56:49.514Z,25.22
2023-05-11T09:58:57.625Z,26.16
2023-05-11T10:01:00.752Z,25.73
2023-05-11T10:03:06.066Z,26.62
2023-05-11T10:05:13.417Z,26.17
2023-05-11T10:07:32.941Z,26.95
2023-05-11T10:09:35.998Z,25.76
2023-05-11T10:11:43.621Z,25.51
2023-05-11T10:13:46.437Z,26.04
2023-05-11T10:15:52.370Z,24.65
2023-05-11T10:17:57.256Z,24.42
2023-05-11T10:20:01.289Z,24.10
2023-05-11T10:22:06.112Z,25.04
2023-05-11T10:24:10.457Z,24.79
2023-05-11T10:26:14.142Z,24.59
2023-05-11T10:28:17.385Z,24.86
2023-05-11T10:30:21.107Z,25.13
2023-05-11T10:32:24.508Z,26.77
2023-05-11T10:34:29.321Z,26.52
2023-05-11T10:36:32.129Z,26.80
2023-05-11T10:38:35.036Z,26.43
2023-05-11T10:40:42.040Z,27.02
2023-05-11T10:43:15.985Z,27.18
2023-05-11T10:45:43.390Z,27.32
2023-05-11T10:47:55.408Z,26.93
2023-05-11T10:50:24.467Z,26.13
2023-05-11T10:52:37.313Z,25.39
2023-05-11T10:55:34.422Z,25.18
2023-05-11T10:57:48.942Z,25.55
2023-05-11T11:00:11.376Z,26.10
2023-05-11T11:02:14.352Z,24.58
2023-05-11T11:04:17.590Z,24.87
2023-05-11T11:06:26.370Z,23.74
2023-05-11T11:08:30.082Z,22.71
2023-05-11T11:10:40.598Z,23.53
2023-05-11T11:13:03.095Z,24.30
2023-05-11T11:15:07.475Z,23.99
2023-05-11T11:17:21.057Z,23.39
2023-05-11T11:19:33.382Z,23.45
2023-05-11T11:21:42.957Z,23.14
2023-05-11T11:23:51.393Z,22.86
2023-05-11T11:25:54.555Z,21.96
2023-05-11T11:27:58.738Z,21.21
2023-05-11T11:30:19.979Z,23.51
2023-05-11T11:32:23.407Z,23.60
2023-05-11T11:34:29.287Z,23.84
2023-05-11T11:36:58.706Z,24.92
2023-05-11T11:39:04.006Z,24.50
2023-05-11T11:41:08.967Z,23.53
2023-05-11T11:43:25.526Z,21.63
2023-05-11T11:45:32.768Z,23.36
2023-05-11T11:47:35.685Z,24.19
2023-05-11T11:49:40.039Z,24.56
2023-05-11T11:51:42.804Z,25.43
2023-05-11T11:53:51.370Z,24.09
2023-05-11T11:55:54.091Z,24.38
2023-05-11T11:57:57.080Z,24.60
2023-05-11T12:00:13.070Z,24.83
2023-05-11T12:02:17.898Z,22.86
2023-05-11T12:04:51.133Z,22.93
2023-05-11T12:06:58.825Z,22.79
2023-05-11T12:09:01.860Z,23.44
2023-05-11T12:11:06.438Z,21.95
2023-05-11T12:13:11.563Z,21.59
2023-05-11T12:15:25.606Z,20.23
2023-05-11T12:17:30.163Z,21.94
2023-05-11T12:19:32.970Z,21.30
2023-05-11T12:21:35.820Z,20.83
2023-05-11T12:23:38.718Z,21.02
2023-05-11T12:25:41.525Z,21.94
2023-05-11T12:28:13.866Z,21.88
2023-05-11T12:30:27.405Z,22.74
2023-05-11T12:32:36.906Z,23.02
2023-05-11T12:34:39.748Z,24.04
2023-05-11T12:36:43.425Z,22.75
2023-05-11T12:38:49.450Z,21.68
2023-05-11T12:40:53.516Z,21.67
2023-05-11T12:42:58.201Z,21.00
2023-05-11T12:45:01.157Z,21.34
2023-05-11T12:47:04.521Z,21.02
2023-05-11T12:49:07.575Z,20.76
2023-05-11T12:51:10.623Z,20.99
2023-05-11T12:53:18.794Z,22.02
2023-05-11T12:55:31.353Z,22.31
2023-05-11T12:57:34.126Z,21.21
2023-05-11T12:59:43.842Z,19.49
2023-05-11T13:01:47.466Z,18.93
2023-05-11T13:03:52.100Z,19.30
2023-05-11T13:06:19.359Z,20.32
2023-05-11T13:08:22.436Z,19.26
2023-05-11T13:10:27.016Z,18.72
2023-05-11T13:12:34.453Z,18.85
2023-05-11T13:14:37.398Z,18.70
2023-05-11T13:16:40.012Z,18.43
2023-05-11T13:18:59.471Z,19.53
2023-05-11T13:21:09.689Z,17.55
2023-05-11T13:23:15.467Z,17.56
2023-05-11T13:25:21.314Z,17.78
2023-05-11T13:27:24.238Z,16.86
2023-05-11T13:29:27.455Z,16.88
2023-05-11T13:31:30.197Z,18.05
2023-05-11T13:33:33.220Z,18.93
2023-05-11T13:35:40.206Z,18.78
2023-05-11T13:37:43.027Z,19.73
2023-05-11T13:39:45.841Z,20.03
2023-05-11T13:41:48.816Z,21.92
2023-05-11T13:43:51.710Z,21.69
2023-05-11T13:45:54.470Z,22.14
2023-05-11T13:47:57.625Z,21.94
2023-05-11T13:50:00.514Z,22.25
2023-05-11T13:52:03.518Z,20.08
2023-05-11T13:54:06.865Z,19.80
2023-05-11T13:56:10.311Z,18.68
2023-05-11T13:58:13.295Z,19.13
2023-05-11T14:00:16.639Z,21.14
2023-05-11T14:02:19.795Z,19.80
2023-05-11T14:04:22.686Z,20.72
2023-05-11T14:06:25.966Z,20.97
2023-05-11T14:08:28.778Z,18.81
2023-05-11T14:10:31.552Z,18.00
2023-05-11T14:12:34.205Z,21.04
2023-05-11T14:14:36.922Z,17.61
2023-05-11T14:16:39.757Z,17.67
2023-05-11T14:18:42.745Z,17.08
2023-05-11T14:20:45.591Z,18.04
2023-05-11T14:22:48.377Z,16.95
2023-05-11T14:24:51.082Z,18.42
2023-05-11T14:26:53.857Z,17.83
2023-05-11T14:28:56.619Z,18.54
2023-05-11T14:31:00.149Z,17.67
2023-05-11T14:33:02.839Z,19.03
2023-05-11T14:35:06.189Z,18.66
2023-05-11T14:37:09.722Z,20.64
2023-05-11T14:39:12.367Z,18.67
2023-05-11T14:41:15.149Z,19.75
2023-05-11T14:43:18.039Z,20.10
2023-05-11T14:45:21.123Z,20.80
2023-05-11T14:47:24.458Z,21.60
2023-05-11T14:49:27.211Z,22.01
2023-05-11T14:51:30.009Z,20.62
2023-05-11T14:53:32.948Z,21.17
2023-05-11T14:55:37.192Z,19.98
2023-05-11T14:57:39.889Z,20.73
2023-05-11T14:59:55.419Z,19.81
2023-05-11T15:02:01.528Z,19.68
2023-05-11T15:04:04.640Z,18.45
2023-05-11T15:06:07.900Z,18.73
2023-05-11T15:08:21.689Z,19.43
2023-05-11T15:10:31.566Z,19.33
2023-05-11T15:12:34.198Z,19.42
2023-05-11T15:14:36.821Z,19.19
2023-05-11T15:16:39.501Z,19.71
2023-05-11T15:18:43.018Z,20.92
2023-05-11T15:20:46.852Z,21.06
2023-05-11T15:22:49.736Z,19.83
2023-05-11T15:24:52.451Z,20.11
2023-05-11T15:26:55.232Z,21.68
2023-05-11T15:28:57.873Z,23.30
2023-05-11T15:31:00.612Z,23.11
2023-05-11T15:33:03.474Z,23.29
2023-05-11T15:35:06.953Z,24.78
2023-05-11T15:37:11.446Z,24.67
2023-05-11T15:39:14.320Z,24.52
2023-05-11T15:41:16.953Z,25.37
2023-05-11T15:43:19.719Z,25.28
2023-05-11T15:45:22.549Z,25.48
2023-05-11T15:47:25.423Z,27.80
2023-05-11T15:49:28.730Z,25.70
2023-05-11T15:51:31.484Z,26.40
2023-05-11T15:53:34.142Z,27.47
2023-05-11T15:55:37.230Z,26.26
2023-05-11T15:57:39.873Z,27.02
2023-05-11T15:59:42.557Z,27.18
2023-05-11T16:01:45.485Z,28.60
2023-05-11T16:03:48.318Z,28.86
2023-05-11T16:05:51.116Z,27.81
2023-05-11T16:07:53.903Z,29.44
2023-05-11T16:09:56.606Z,28.40
2023-05-11T16:11:59.251Z,28.89
2023-05-11T16:14:01.922Z,29.29
2023-05-11T16:16:05.020Z,29.54
2023-05-11T16:18:07.858Z,29.45
2023-05-11T16:20:11.443Z,29.14
2023-05-11T16:22:14.085Z,29.32
2023-05-11T16:24:16.747Z,30.24
2023-05-11T16:26:19.481Z,31.65
2023-05-11T16:28:22.625Z,30.97
2023-05-11T16:30:26.100Z,31.64
2023-05-11T16:32:28.966Z,31.34
2023-05-11T16:34:32.011Z,32.39
2023-05-11T16:36:34.664Z,31.28
2023-05-11T16:38:37.844Z,32.30
2023-05-11T16:40:40.905Z,32.23
2023-05-11T16:42:43.597Z,31.08
2023-05-11T16:44:46.347Z,30.94
2023-05-11T16:46:49.348Z,31.61
2023-05-11T16:48:52.137Z,32.13
2023-05-11T16:50:55.833Z,32.39
2023-05-11T16:52:58.844Z,32.07
2023-05-11T16:55:01.648Z,32.72
2023-05-11T16:57:06.782Z,32.86
2023-05-11T16:59:10.788Z,32.64
2023-05-11T17:01:14.238Z,34.66
2023-05-11T17:03:19.019Z,33.10
2023-05-11T17:05:23.217Z,32.99
2023-05-11T17:07:26.606Z,33.12
2023-05-11T17:09:29.697Z,32.78
2023-05-11T17:11:32.540Z,32.77
2023-05-11T17:13:35.241Z,32.73
2023-05-11T17:15:38.236Z,33.37
2023-05-11T17:17:41.375Z,33.60
2023-05-11T17:19:44.217Z,33.78
2023-05-11T17:21:46.906Z,33.59
2023-05-11T17:23:49.500Z,33.81
2023-05-11T17:25:52.802Z,33.70
2023-05-11T17:27:55.575Z,34.86
2023-05-11T17:29:58.559Z,36.08
2023-05-11T17:32:01.505Z,35.12
2023-05-11T17:34:04.569Z,33.90
2023-05-11T17:36:07.989Z,34.18
2023-05-11T17:38:10.702Z,34.76
2023-05-11T17:40:13.712Z,35.36
2023-05-11T17:42:16.606Z,34.66
2023-05-11T17:44:19.252Z,34.86
2023-05-11T17:46:22.037Z,35.69
2023-05-11T17:48:25.332Z,34.66
2023-05-11T17:50:28.510Z,35.54
2023-05-11T17:52:31.207Z,35.56
2023-05-11T17:54:33.806Z,35.21
2023-05-11T17:56:36.504Z,34.58
2023-05-11T17:58:39.327Z,36.19
2023-05-11T18:00:41.966Z,35.85
2023-05-11T18:02:48.820Z,35.93
2023-05-11T18:04:52.301Z,37.74
2023-05-11T18:06:54.911Z,36.85
2023-05-11T18:08:59.082Z,36.44
2023-05-11T18:11:01.833Z,36.41
2023-05-11T18:13:04.977Z,36.73
2023-05-11T18:15:08.162Z,37.77
2023-05-11T18:17:10.949Z,37.58
2023-05-11T18:19:13.622Z,38.01
2023-05-11T18:21:16.554Z,37.79
2023-05-11T18:23:19.259Z,37.92
2023-05-11T18:25:22.285Z,38.92
2023-05-11T18:27:25.567Z,38.69
2023-05-11T18:29:28.317Z,39.52
2023-05-11T18:31:31.793Z,38.83
2023-05-11T18:33:34.557Z,40.33
2023-05-11T18:35:39.175Z,40.20
2023-05-11T18:37:42.033Z,39.68
2023-05-11T18:39:45.426Z,39.60
2023-05-11T18:41:48.248Z,40.14
2023-05-11T18:43:52.871Z,39.58
2023-05-11T18:45:55.576Z,41.02
2023-05-11T18:47:58.319Z,42.13
2023-05-11T18:50:01.071Z,40.97
2023-05-11T18:52:04.224Z,40.59
2023-05-11T18:54:07.138Z,41.08
2023-05-11T18:56:11.244Z,40.79
2023-05-11T18:58:13.946Z,41.52
2023-05-11T19:00:16.836Z,42.06
2023-05-11T19:02:19.653Z,42.20
2023-05-11T19:04:23.229Z,42.05
2023-05-11T19:06:26.106Z,41.61
2023-05-11T19:08:29.620Z,42.76
2023-05-11T19:10:32.297Z,42.29
2023-05-11T19:12:35.005Z,42.68
2023-05-11T19:14:37.753Z,43.29
2023-05-11T19:16:40.401Z,43.46
2023-05-11T19:18:43.364Z,43.18
2023-05-11T19:20:46.429Z,43.59
2023-05-11T19:22:49.379Z,44.13
2023-05-11T19:24:52.067Z,44.83
2023-05-11T19:27:06.798Z,44.85
2023-05-11T19:29:11.837Z,44.47
2023-05-11T19:31:14.452Z,45.03
2023-05-11T19:33:17.206Z,45.65
2023-05-11T19:35:19.874Z,45.46
2023-05-11T19:37:22.671Z,45.65
2023-05-11T19:39:25.712Z,45.57
2023-05-11T19:41:28.554Z,45.71
2023-05-11T19:43:31.482Z,46.34
2023-05-11T19:45:34.362Z,46.62
2023-05-11T19:47:40.222Z,46.75
2023-05-11T19:49:44.245Z,46.58
2023-05-11T19:51:47.218Z,46.91
2023-05-11T19:53:50.194Z,47.11
2023-05-11T19:55:53.064Z,47.40
2023-05-11T19:57:55.896Z,47.72
2023-05-11T19:59:58.690Z,47.44
2023-05-11T20:02:02.627Z,47.90
2023-05-11T20:04:05.531Z,48.00
2023-05-11T20:06:08.444Z,48.19
2023-05-11T20:08:11.354Z,48.74
2023-05-11T20:10:51.273Z,48.71
2023-05-11T20:12:54.101Z,49.19
2023-05-11T20:14:56.707Z,49.50
2023-05-11T20:16:59.421Z,49.69
2023-05-11T20:19:02.034Z,49.73
2023-05-11T20:21:04.739Z,50.08
2023-05-11T20:23:45.984Z,50.36
2023-05-11T20:25:48.633Z,50.39
2023-05-11T20:27:51.774Z,50.91
2023-05-11T20:29:55.351Z,50.89
2023-05-11T20:32:16.328Z,51.13
2023-05-11T20:34:37.737Z,51.73
2023-05-11T20:36:40.942Z,51.56
2023-05-11T20:38:44.082Z,51.96
2023-05-11T20:40:46.910Z,51.85
2023-05-11T20:42:49.726Z,52.10
2023-05-11T20:44:52.850Z,52.19
2023-05-11T20:46:55.828Z,52.35
2023-05-11T20:48:58.599Z,52.58
2023-05-11T20:51:01.201Z,53.34
2023-05-11T20:53:03.891Z,53.38
2023-05-11T20:55:07.727Z,53.78
2023-05-11T20:57:10.765Z,54.19
2023-05-11T21:00:03.690Z,53.95
2023-05-11T21:01:36.541Z,54.20
2023-05-11T21:03:39.485Z,54.38
2023-05-11T21:05:42.218Z,54.59
2023-05-11T21:07:44.955Z,54.69
2023-05-11T21:09:47.587Z,54.94
2023-05-11T21:11:50.239Z,55.27
2023-05-11T21:13:53.054Z,55.62
2023-05-11T21:15:55.693Z,55.77
2023-05-11T21:17:58.402Z,55.73
2023-05-11T21:20:01.557Z,55.99
2023-05-11T21:22:06.200Z,56.04
2023-05-11T21:24:09.033Z,56.20
2023-05-11T21:26:11.836Z,56.76
2023-05-11T21:28:14.789Z,56.78
2023-05-11T21:30:17.682Z,56.81
2023-05-11T21:32:20.499Z,57.27
2023-05-11T21:34:23.099Z,57.49
2023-05-11T21:36:25.976Z,57.84
2023-05-11T21:38:28.651Z,57.82
2023-05-11T21:40:31.239Z,57.96
2023-05-11T21:42:36.348Z,58.20
2023-05-11T21:44:39.228Z,58.62
2023-05-11T21:46:41.960Z,58.49
2023-05-11T21:48:44.626Z,58.78
2023-05-11T21:50:53.837Z,58.87
2023-05-11T21:52:57.009Z,59.25
2023-05-11T21:54:59.733Z,59.32
2023-05-11T21:57:04.096Z,59.22
2023-05-11T21:59:06.674Z,59.46
2023-05-11T22:01:09.310Z,59.70
2023-05-11T22:03:12.127Z,59.59
2023-05-11T22:05:15.213Z,59.96
2023-05-11T22:07:17.862Z,60.12
2023-05-11T22:09:20.542Z,60.43
2023-05-11T22:11:23.138Z,60.76
2023-05-11T22:13:26.340Z,60.94
2023-05-11T22:15:30.441Z,61.13
2023-05-11T22:17:33.167Z,61.28
2023-05-11T22:19:35.820Z,61.46
2023-05-11T22:21:38.503Z,61.26
2023-05-11T22:23:41.174Z,61.47
2023-05-11T22:25:45.041Z,61.99
2023-05-11T22:27:48.134Z,61.87
2023-05-11T22:29:52.383Z,61.88
2023-05-11T22:31:55.062Z,61.70
2023-05-11T22:33:59.162Z,62.13
2023-05-11T22:36:01.874Z,61.84
2023-05-11T22:38:04.943Z,62.14
2023-05-11T22:40:09.022Z,62.34
2023-05-11T22:42:11.634Z,62.42
2023-05-11T22:44:14.332Z,62.55
2023-05-11T22:46:17.574Z,62.47
2023-05-11T22:48:20.294Z,62.59
2023-05-11T22:50:22.892Z,62.83
2023-05-11T22:52:25.671Z,63.29
2023-05-11T22:54:28.364Z,63.13
2023-05-11T22:56:31.383Z,63.82
2023-05-11T22:58:34.296Z,63.88
2023-05-11T23:00:37.386Z,64.06
2023-05-11T23:02:40.458Z,64.62
2023-05-11T23:04:43.412Z,64.54
2023-05-11T23:06:46.058Z,64.98
2023-05-11T23:08:48.733Z,64.89
2023-05-11T23:10:51.517Z,64.66
2023-05-11T23:12:54.457Z,64.64
2023-05-11T23:14:57.035Z,65.13
2023-05-11T23:16:59.768Z,65.07
2023-05-11T23:19:02.683Z,65.27
2023-05-11T23:21:05.532Z,65.62
2023-05-11T23:23:08.182Z,66.03
2023-05-11T23:25:11.136Z,66.36
2023-05-11T23:27:13.863Z,66.19
2023-05-11T23:29:16.594Z,66.87
2023-05-11T23:31:19.937Z,67.18
2023-05-11T23:33:23.063Z,67.72
2023-05-11T23:35:25.751Z,68.09
2023-05-11T23:37:28.325Z,67.93
2023-05-11T23:39:30.897Z,68.06
2023-05-11T23:41:33.728Z,68.10
2023-05-11T23:43:37.409Z,68.21
2023-05-11T23:45:40.296Z,68.20
2023-05-11T23:47:43.124Z,67.96
2023-05-11T23:49:45.799Z,67.47
2023-05-11T23:51:48.515Z,67.46
2023-05-11T23:53:51.506Z,67.35
2023-05-11T23:55:54.142Z,66.86
2023-05-11T23:57:58.817Z,67.03
